createdAt,value
2022-08-17T00:03:57.886Z,11.70
2022-08-17T00:14:27.347Z,9.60
2022-08-17T00:24:56.209Z,9.30
2022-08-17T00:35:28.021Z,8.80
2022-08-17T00:45:57.331Z,8.80
2022-08-17T00:56:31.424Z,14.10
2022-08-17T01:07:03.047Z,11.20
2022-08-17T01:17:31.967Z,9.40
2022-08-17T01:28:00.918Z,9.10
2022-08-17T01:38:32.128Z,11.50
2022-08-17T01:49:01.997Z,9.70
2022-08-17T01:59:30.894Z,9.40
2022-08-17T02:09:59.737Z,11.80
2022-08-17T02:20:41.538Z,10.70
2022-08-17T02:31:13.862Z,7.90
2022-08-17T02:41:44.072Z,8.60
2022-08-17T02:52:12.917Z,8.50
2022-08-17T03:02:43.788Z,8.70
2022-08-17T03:13:14.909Z,8.10
2022-08-17T03:23:43.681Z,8.20
2022-08-17T03:34:12.554Z,9.80
2022-08-17T03:44:41.504Z,9.50
2022-08-17T03:55:30.749Z,8.20
2022-08-17T04:06:05.944Z,11.40
2022-08-17T04:16:36.293Z,11.60
2022-08-17T04:27:05.248Z,11.90
2022-08-17T04:37:34.097Z,13.80
2022-08-17T04:48:03.104Z,13.00
2022-08-17T04:58:32.011Z,15.10
2022-08-17T05:09:01.583Z,11.40
2022-08-17T05:19:30.585Z,12.00
2022-08-17T05:29:59.576Z,15.60
2022-08-17T05:40:32.768Z,16.30
2022-08-17T05:51:15.621Z,15.10
2022-08-17T06:01:54.806Z,17.20
2022-08-17T06:12:36.244Z,15.60
2022-08-17T06:23:10.613Z,15.40
2022-08-17T06:33:41.919Z,17.60
2022-08-17T06:44:43.682Z,16.60
2022-08-17T06:55:17.691Z,15.90
2022-08-17T07:05:53.581Z,16.40
2022-08-17T07:16:28.788Z,16.30
2022-08-17T07:27:10.178Z,16.40
2022-08-17T07:37:39.743Z,14.50
2022-08-17T07:48:21.953Z,13.50
2022-08-17T07:59:07.076Z,13.60
2022-08-17T08:09:43.599Z,14.20
2022-08-17T08:20:53.200Z,14.00
2022-08-17T08:31:25.946Z,13.70
2022-08-17T08:42:02.504Z,12.60
2022-08-17T08:52:54.948Z,12.10
2022-08-17T09:03:54.116Z,13.50
2022-08-17T09:14:29.190Z,11.50
2022-08-17T09:25:04.794Z,8.70
2022-08-17T09:35:37.993Z,10.80
2022-08-17T09:46:13.872Z,10.80
2022-08-17T09:57:18.145Z,10.60
2022-08-17T10:07:52.968Z,11.20
2022-08-17T10:18:34.699Z,10.40
2022-08-17T10:29:08.200Z,10.60
2022-08-17T10:39:52.098Z,10.40
2022-08-17T10:51:02.604Z,10.10
2022-08-17T11:02:16.008Z,10.40
2022-08-17T11:13:01.555Z,9.20
2022-08-17T11:23:59.520Z,10.30
2022-08-17T11:34:32.046Z,9.80
2022-08-17T11:45:05.385Z,9.70
2022-08-17T11:56:08.457Z,8.00
2022-08-17T12:06:49.990Z,8.40
2022-08-17T12:17:39.782Z,8.50
2022-08-17T12:28:23.941Z,9.30
2022-08-17T12:39:12.926Z,9.20
2022-08-17T12:49:44.954Z,9.80
2022-08-17T13:00:18.951Z,10.20
2022-08-17T13:10:58.379Z,9.80
2022-08-17T13:21:33.503Z,10.00
2022-08-17T13:32:19.728Z,8.80
2022-08-17T13:42:52.892Z,10.10
2022-08-17T13:53:26.731Z,9.40
2022-08-17T14:03:55.661Z,8.90
2022-08-17T14:14:26.048Z,9.00
2022-08-17T14:24:55.299Z,9.90
2022-08-17T14:35:25.702Z,8.50
2022-08-17T14:45:54.651Z,8.10
2022-08-17T14:56:23.862Z,8.40
2022-08-17T15:06:53.254Z,9.30
2022-08-17T15:17:22.278Z,8.50
2022-08-17T15:27:51.667Z,8.70
2022-08-17T15:38:22.344Z,9.00
2022-08-17T15:48:53.238Z,8.50
2022-08-17T15:59:22.636Z,9.40
2022-08-17T16:09:55.834Z,10.30
2022-08-17T16:20:24.907Z,10.20
2022-08-17T16:30:53.894Z,9.70
2022-08-17T16:41:36.516Z,9.50
2022-08-17T16:52:06.587Z,9.80
2022-08-17T17:02:37.698Z,9.00
2022-08-17T17:13:09.311Z,10.80
2022-08-17T17:23:53.451Z,9.30
2022-08-17T17:34:23.789Z,10.00
2022-08-17T17:45:00.763Z,10.20
2022-08-17T17:55:47.588Z,10.00
2022-08-17T18:06:27.980Z,10.70
2022-08-17T18:16:59.819Z,10.30
2022-08-17T18:27:35.259Z,12.10
2022-08-17T18:48:59.041Z,11.30
2022-08-17T18:59:35.250Z,13.00
2022-08-17T19:10:13.424Z,12.90
2022-08-17T19:20:49.251Z,13.00
2022-08-17T19:31:22.322Z,14.80
2022-08-17T19:42:00.962Z,13.20
2022-08-17T19:52:49.653Z,14.40
2022-08-17T20:03:24.449Z,16.20
2022-08-17T20:14:01.375Z,16.00
2022-08-17T20:24:37.852Z,14.50
2022-08-17T20:35:24.019Z,16.70
2022-08-17T20:46:25.071Z,16.00
2022-08-17T20:56:58.021Z,15.00
2022-08-17T21:07:32.952Z,15.40
2022-08-17T21:18:16.761Z,15.90
2022-08-17T21:29:00.379Z,16.00
2022-08-17T21:39:41.966Z,17.30
2022-08-17T21:50:21.565Z,16.20
2022-08-17T22:01:10.182Z,17.10
2022-08-17T22:11:56.118Z,17.30
2022-08-17T22:22:29.679Z,15.60
2022-08-17T22:32:59.349Z,18.00
2022-08-17T22:43:31.603Z,17.50
2022-08-17T22:54:32.007Z,16.60
2022-08-17T23:05:21.927Z,16.90
2022-08-17T23:15:52.659Z,16.00
2022-08-17T23:26:23.268Z,15.60
2022-08-17T23:36:52.572Z,19.20
2022-08-17T23:47:21.753Z,17.00
2022-08-17T23:57:50.885Z,18.40
